Ruggles Beach, Ohio
Current Conditions -  °F | °C
As of 11:07 AM on Sunday 25 Jan 2015 (Local Time) from KPCW Reporting Station
Light Snow Light Snow  
Wind Chill: 11°   Ceiling: 1100
Heat Index: 25°   Visibility: 2.5mi
Dew Point: 21°   Wind: 18mph
Humidity: 86%   Direction: 60°ENE
Pressure: 29.88"   Gusts: NA
Location:  41.3748°N, 82.5554°W
Report Text: KPCW 251607Z AUTO 06016KT 2 1/2SM -SN BR BKN011 OVC018 M04/M06 A2988 RMK
Loading
Personal Weather Stations






























Interactive Weather Map New forecast layout! Learn more

10-Day Weather Forecast

Advertisements
Track Severe Weather on mobile